Time;durP1;ratioP1;P1;durP2;ratioP2;P2;SDS_P1;SDS_P2;PMS_P1;PMS_P2;Temp;Humidity;BMP_temperature;BMP_pressure;BME280_temperature;BME280_humidity;BME280_pressure;Samples;Min_cycle;Max_cycle;Signal;HPM_P1;HPM_P2
2024/03/29 00:00:13;;;;;;;5.07;1.33;;;;;;;;;;5126902;28;20027;-54
2024/03/29 00:02:38;;;;;;;9.02;1.42;;;;;;;;;;5128054;28;20042;-56
2024/03/29 00:05:04;;;;;;;3.37;1.10;;;;;;;;;;5137323;28;20087;-57
2024/03/29 00:07:29;;;;;;;2.65;1.05;;;;;;;;;;5137182;28;20028;-51
2024/03/29 00:09:55;;;;;;;8.67;1.77;;;;;;;;;;5135652;28;20057;-55
2024/03/29 00:12:20;;;;;;;4.93;1.30;;;;;;;;;;5136192;28;20304;-56
2024/03/29 00:14:47;;;;;;;4.80;1.30;;;;;;;;;;5136628;28;20027;-57
2024/03/29 00:17:12;;;;;;;8.23;1.77;;;;;;;;;;5137668;28;20608;-56
2024/03/29 00:19:38;;;;;;;3.50;0.90;;;;;;;;;;5133816;28;20260;-58
2024/03/29 00:22:03;;;;;;;3.80;1.20;;;;;;;;;;5137522;28;20043;-57
2024/03/29 00:24:29;;;;;;;6.03;1.20;;;;;;;;;;5135700;28;20046;-57
2024/03/29 00:26:54;;;;;;;4.80;1.00;;;;;;;;;;5127936;28;20039;-57
2024/03/29 00:29:20;;;;;;;7.33;1.40;;;;;;;;;;5136568;28;20288;-58
2024/03/29 00:31:45;;;;;;;11.40;1.20;;;;;;;;;;5135749;28;20061;-59
2024/03/29 00:34:10;;;;;;;6.90;1.00;;;;;;;;;;5133415;28;20027;-54
2024/03/29 00:36:36;;;;;;;7.80;1.10;;;;;;;;;;5136593;28;20062;-57
2024/03/29 00:39:01;;;;;;;9.13;1.63;;;;;;;;;;5133016;28;20040;-58
2024/03/29 00:41:27;;;;;;;4.43;1.03;;;;;;;;;;5136972;28;20040;-58
2024/03/29 00:43:52;;;;;;;6.87;1.03;;;;;;;;;;5135150;28;20071;-58
2024/03/29 00:46:18;;;;;;;2.95;1.00;;;;;;;;;;5135043;28;20455;-55
2024/03/29 00:48:46;;;;;;;6.07;1.00;;;;;;;;;;5135639;28;20039;-56
2024/03/29 00:51:11;;;;;;;8.23;1.73;;;;;;;;;;5134106;28;20284;-58
2024/03/29 00:53:37;;;;;;;7.87;1.27;;;;;;;;;;5136474;28;20290;-58
2024/03/29 00:56:02;;;;;;;7.13;1.00;;;;;;;;;;5135328;28;20259;-58
2024/03/29 00:58:28;;;;;;;8.87;1.17;;;;;;;;;;5133898;28;20049;-55
2024/03/29 01:00:53;;;;;;;4.97;1.07;;;;;;;;;;5134909;28;20038;-55
2024/03/29 01:03:18;;;;;;;4.73;1.00;;;;;;;;;;5136160;28;20036;-55
2024/03/29 01:05:44;;;;;;;3.43;1.10;;;;;;;;;;5117818;28;20355;-56
2024/03/29 01:08:10;;;;;;;5.70;1.35;;;;;;;;;;5136345;28;20036;-58
2024/03/29 01:10:35;;;;;;;4.93;1.10;;;;;;;;;;5131412;28;20049;-58
2024/03/29 01:13:00;;;;;;;4.40;1.33;;;;;;;;;;5136342;28;20290;-57
2024/03/29 01:15:26;;;;;;;3.60;0.90;;;;;;;;;;5135433;28;20264;-56
2024/03/29 01:17:51;;;;;;;4.32;0.90;;;;;;;;;;5136245;28;20038;-52
2024/03/29 01:20:17;;;;;;;2.60;1.10;;;;;;;;;;5135406;28;20032;-56
2024/03/29 01:22:42;;;;;;;4.83;0.90;;;;;;;;;;5135483;28;20027;-57
2024/03/29 01:25:09;;;;;;;10.03;1.53;;;;;;;;;;5136024;28;20031;-57
2024/03/29 01:27:34;;;;;;;5.63;1.10;;;;;;;;;;5136208;28;20100;-58
2024/03/29 01:30:00;;;;;;;3.47;0.93;;;;;;;;;;5135398;28;20267;-55
2024/03/29 01:32:25;;;;;;;4.80;1.10;;;;;;;;;;5135217;28;20042;-56
2024/03/29 01:34:51;;;;;;;6.83;1.17;;;;;;;;;;5136109;28;20256;-57
2024/03/29 01:37:17;;;;;;;2.38;1.10;;;;;;;;;;5117939;28;20024;-57
2024/03/29 01:39:42;;;;;;;4.70;1.33;;;;;;;;;;5133920;28;20055;-58
2024/03/29 01:42:08;;;;;;;6.60;1.20;;;;;;;;;;5123734;28;20024;-58
2024/03/29 01:44:34;;;;;;;11.13;1.80;;;;;;;;;;5135017;28;20035;-58
2024/03/29 01:46:59;;;;;;;8.50;1.57;;;;;;;;;;5133987;28;20035;-59
2024/03/29 01:49:25;;;;;;;3.63;1.00;;;;;;;;;;5135321;28;20036;-60
2024/03/29 01:51:51;;;;;;;2.80;1.02;;;;;;;;;;5135476;28;20031;-60
2024/03/29 01:54:17;;;;;;;4.88;1.00;;;;;;;;;;5135580;28;20027;-57
2024/03/29 01:56:42;;;;;;;3.72;1.13;;;;;;;;;;5124352;28;20088;-56
2024/03/29 01:59:12;;;;;;;4.93;1.13;;;;;;;;;;5135449;28;20024;-57
2024/03/29 02:01:39;;;;;;;3.47;1.60;;;;;;;;;;5134837;28;20043;-58
2024/03/29 02:04:05;;;;;;;2.57;1.00;;;;;;;;;;5135490;28;20027;-58
2024/03/29 02:06:30;;;;;;;3.43;1.30;;;;;;;;;;5133267;28;20294;-55
2024/03/29 02:08:56;;;;;;;3.57;1.00;;;;;;;;;;5135525;28;20272;-56
2024/03/29 02:11:21;;;;;;;8.83;1.63;;;;;;;;;;5134054;28;20047;-56
2024/03/29 02:13:48;;;;;;;18.75;1.67;;;;;;;;;;5135420;28;20034;-57
2024/03/29 02:16:13;;;;;;;3.15;1.27;;;;;;;;;;5134809;28;20036;-57
2024/03/29 02:18:38;;;;;;;4.40;1.13;;;;;;;;;;5135391;28;20031;-57
2024/03/29 02:21:04;;;;;;;5.35;0.80;;;;;;;;;;5133065;28;20110;-58
2024/03/29 02:23:32;;;;;;;6.70;0.90;;;;;;;;;;5135268;28;20038;-58
2024/03/29 02:25:58;;;;;;;5.63;1.17;;;;;;;;;;5134867;28;20027;-54
2024/03/29 02:28:24;;;;;;;7.00;1.10;;;;;;;;;;5135070;28;20302;-56
2024/03/29 02:30:49;;;;;;;4.50;1.57;;;;;;;;;;5132136;28;20287;-56
2024/03/29 02:33:14;;;;;;;3.60;0.87;;;;;;;;;;5135329;28;20027;-57
2024/03/29 02:35:40;;;;;;;1.92;1.13;;;;;;;;;;5138187;28;20077;-56
2024/03/29 02:38:06;;;;;;;6.27;1.10;;;;;;;;;;5139271;28;20039;-57
2024/03/29 02:40:31;;;;;;;7.25;1.10;;;;;;;;;;5132385;28;20083;-58
2024/03/29 02:42:57;;;;;;;5.03;1.00;;;;;;;;;;5133624;28;20028;-58
2024/03/29 02:45:22;;;;;;;8.10;1.00;;;;;;;;;;5139509;28;20024;-56
2024/03/29 02:47:47;;;;;;;8.70;1.30;;;;;;;;;;5135516;28;20268;-56
2024/03/29 02:50:13;;;;;;;8.17;1.30;;;;;;;;;;5138933;28;20079;-52
2024/03/29 02:52:39;;;;;;;6.70;0.85;;;;;;;;;;5134769;28;20077;-53
2024/03/29 02:55:04;;;;;;;3.60;1.43;;;;;;;;;;5139106;28;20024;-53
2024/03/29 02:57:30;;;;;;;3.97;1.30;;;;;;;;;;5138984;28;20028;-57
2024/03/29 02:59:55;;;;;;;4.28;0.80;;;;;;;;;;5120615;28;20036;-56
2024/03/29 03:02:21;;;;;;;3.00;1.20;;;;;;;;;;5128785;28;20030;-57
2024/03/29 03:04:46;;;;;;;5.40;0.97;;;;;;;;;;5138920;28;20291;-56
2024/03/29 03:12:40;;;;;;;7.30;1.27;;;;;;;;;;5131139;28;20291;-56
2024/03/29 03:15:06;;;;;;;4.77;0.87;;;;;;;;;;5138436;28;20279;-57
2024/03/29 03:17:31;;;;;;;7.90;0.90;;;;;;;;;;5136740;28;20264;-56
2024/03/29 03:19:57;;;;;;;2.58;0.98;;;;;;;;;;5137148;28;20110;-58
2024/03/29 03:22:22;;;;;;;11.30;1.07;;;;;;;;;;5120308;28;20057;-57
2024/03/29 03:24:47;;;;;;;5.13;0.90;;;;;;;;;;5138642;28;20075;-57
2024/03/29 03:27:13;;;;;;;2.70;0.98;;;;;;;;;;5137279;28;20084;-56
2024/03/29 03:29:39;;;;;;;3.25;0.95;;;;;;;;;;5136864;28;20036;-55
2024/03/29 03:32:05;;;;;;;3.38;1.10;;;;;;;;;;5129992;28;20047;-56
2024/03/29 03:34:30;;;;;;;2.03;0.90;;;;;;;;;;5138119;28;20051;-54
2024/03/29 03:36:56;;;;;;;6.67;0.97;;;;;;;;;;5138257;28;20083;-55
2024/03/29 03:39:22;;;;;;;4.80;0.80;;;;;;;;;;5124625;28;20271;-56
2024/03/29 03:41:47;;;;;;;8.63;1.80;;;;;;;;;;5137744;28;20020;-56
2024/03/29 03:44:12;;;;;;;2.57;1.10;;;;;;;;;;5138022;28;20042;-57
2024/03/29 03:46:38;;;;;;;1.80;0.88;;;;;;;;;;5137744;28;20089;-56
2024/03/29 03:49:03;;;;;;;3.97;0.90;;;;;;;;;;5138092;28;20066;-56
2024/03/29 03:51:29;;;;;;;2.95;0.65;;;;;;;;;;5137496;28;20031;-57
2024/03/29 03:53:54;;;;;;;3.53;0.85;;;;;;;;;;5135973;28;20083;-59
2024/03/29 03:56:20;;;;;;;7.00;1.10;;;;;;;;;;5137826;28;20019;-54
2024/03/29 03:58:46;;;;;;;2.10;0.70;;;;;;;;;;5137751;28;20264;-58
2024/03/29 04:01:11;;;;;;;5.47;2.00;;;;;;;;;;5135215;28;20264;-59
2024/03/29 04:03:37;;;;;;;3.65;0.70;;;;;;;;;;5135552;28;20051;-57
2024/03/29 04:06:06;;;;;;;1.50;0.52;;;;;;;;;;5137680;28;20091;-59
2024/03/29 04:08:32;;;;;;;1.33;0.40;;;;;;;;;;5135956;28;20027;-57
2024/03/29 04:10:57;;;;;;;2.75;0.85;;;;;;;;;;5128627;28;20337;-57
2024/03/29 04:13:22;;;;;;;1.77;0.90;;;;;;;;;;5137581;28;20036;-58
2024/03/29 04:15:48;;;;;;;3.13;1.10;;;;;;;;;;5137758;28;20027;-58
2024/03/29 04:18:14;;;;;;;4.28;1.00;;;;;;;;;;5136632;28;20110;-58
2024/03/29 04:20:39;;;;;;;4.63;0.93;;;;;;;;;;5135714;28;20036;-58
2024/03/29 04:23:05;;;;;;;9.13;1.47;;;;;;;;;;5132743;28;20261;-59
2024/03/29 04:25:31;;;;;;;6.35;0.90;;;;;;;;;;5137241;28;20027;-57
2024/03/29 04:27:57;;;;;;;4.40;1.20;;;;;;;;;;5125999;28;20024;-58
2024/03/29 04:30:22;;;;;;;2.67;0.73;;;;;;;;;;5135974;28;20055;-58
2024/03/29 04:32:48;;;;;;;;;;;;;;;;;;5135070;28;20058;-59
2024/03/29 04:35:14;;;;;;;1.48;0.73;;;;;;;;;;5137192;28;19912;-56
2024/03/29 04:37:39;;;;;;;2.92;1.20;;;;;;;;;;5135972;28;20062;-55
2024/03/29 04:40:06;;;;;;;2.70;0.60;;;;;;;;;;5137106;28;20027;-58
2024/03/29 04:42:31;;;;;;;9.55;1.10;;;;;;;;;;5129019;28;20039;-57
2024/03/29 04:44:57;;;;;;;3.33;0.80;;;;;;;;;;5135232;28;20050;-58
2024/03/29 04:47:22;;;;;;;1.50;0.73;;;;;;;;;;5131624;28;20261;-58
2024/03/29 04:49:47;;;;;;;8.63;0.80;;;;;;;;;;5136589;28;20027;-58
2024/03/29 04:52:13;;;;;;;1.40;0.80;;;;;;;;;;5122133;28;20081;-58
2024/03/29 04:54:39;;;;;;;7.13;1.15;;;;;;;;;;5136734;28;20023;-60
2024/03/29 04:57:06;;;;;;;2.40;0.90;;;;;;;;;;5135884;28;20092;-58
2024/03/29 04:59:32;;;;;;;7.20;0.83;;;;;;;;;;5136391;28;20103;-56
2024/03/29 05:01:59;;;;;;;2.95;0.98;;;;;;;;;;5135172;28;20260;-59
2024/03/29 05:04:27;;;;;;;3.95;0.85;;;;;;;;;;5136313;28;20043;-58
2024/03/29 05:06:56;;;;;;;2.25;0.70;;;;;;;;;;5134631;28;20023;-62
2024/03/29 05:09:22;;;;;;;2.00;0.80;;;;;;;;;;5128015;28;20035;-59
2024/03/29 05:11:48;;;;;;;5.57;0.82;;;;;;;;;;5134767;28;20113;-59
2024/03/29 05:14:22;;;;;;;6.32;0.85;;;;;;;;;;5132944;28;20039;-60
2024/03/29 05:16:47;;;;;;;5.60;1.40;;;;;;;;;;5136145;28;20019;-59
2024/03/29 05:19:13;;;;;;;3.83;1.80;;;;;;;;;;5136152;28;20056;-58
2024/03/29 05:21:39;;;;;;;10.57;1.13;;;;;;;;;;5132132;28;20024;-58
2024/03/29 05:24:05;;;;;;;6.80;2.08;;;;;;;;;;5129126;28;20121;-59
2024/03/29 05:26:31;;;;;;;6.40;1.17;;;;;;;;;;5136016;28;20031;-59
2024/03/29 05:28:57;;;;;;;3.00;1.03;;;;;;;;;;5132949;28;20039;-60
2024/03/29 05:31:23;;;;;;;5.15;0.88;;;;;;;;;;5135659;28;20052;-60
2024/03/29 05:33:49;;;;;;;2.92;1.10;;;;;;;;;;5128812;28;20019;-59
2024/03/29 05:36:15;;;;;;;4.40;1.83;;;;;;;;;;5135611;28;20038;-60
2024/03/29 05:38:40;;;;;;;5.93;1.40;;;;;;;;;;5136016;28;20279;-58
2024/03/29 05:41:06;;;;;;;2.38;0.90;;;;;;;;;;5135763;28;20027;-60
2024/03/29 05:43:31;;;;;;;6.97;1.20;;;;;;;;;;5135636;28;20091;-60
2024/03/29 05:45:57;;;;;;;2.17;1.00;;;;;;;;;;5135765;28;20263;-60
2024/03/29 05:48:22;;;;;;;4.18;1.20;;;;;;;;;;5125119;28;20047;-60
2024/03/29 05:50:48;;;;;;;5.33;1.23;;;;;;;;;;5135181;28;20057;-59
2024/03/29 05:53:13;;;;;;;3.72;1.08;;;;;;;;;;5129039;28;20016;-59
2024/03/29 05:55:39;;;;;;;2.63;1.03;;;;;;;;;;5134809;28;20099;-60
2024/03/29 05:58:06;;;;;;;5.07;1.20;;;;;;;;;;5128558;28;20028;-62
2024/03/29 06:00:33;;;;;;;6.57;1.42;;;;;;;;;;5134526;28;20061;-60
2024/03/29 06:03:02;;;;;;;2.63;0.82;;;;;;;;;;5135086;28;20036;-60
2024/03/29 06:05:28;;;;;;;2.45;0.93;;;;;;;;;;5135270;28;20027;-60
2024/03/29 06:07:53;;;;;;;4.83;1.50;;;;;;;;;;5130878;28;20024;-60
2024/03/29 06:10:19;;;;;;;4.63;0.87;;;;;;;;;;5132983;28;20268;-59
2024/03/29 06:12:44;;;;;;;3.83;1.23;;;;;;;;;;5135010;28;20275;-60
2024/03/29 06:17:55;;;;;;;7.97;1.17;;;;;;;;;;5131038;28;20333;-61
2024/03/29 06:20:20;;;;;;;5.77;1.13;;;;;;;;;;5134617;28;20028;-60
2024/03/29 06:22:46;;;;;;;4.40;1.03;;;;;;;;;;5134860;28;20271;-59
2024/03/29 06:25:12;;;;;;;6.35;1.30;;;;;;;;;;5134807;28;20053;-60
2024/03/29 06:27:38;;;;;;;5.22;1.45;;;;;;;;;;5133862;28;20031;-60
2024/03/29 06:30:04;;;;;;;3.73;1.20;;;;;;;;;;5134858;28;20024;-60
2024/03/29 06:32:30;;;;;;;4.72;1.33;;;;;;;;;;5134748;28;20298;-60
2024/03/29 06:34:55;;;;;;;;;;;;;;;;;;5125833;28;20023;-58
2024/03/29 06:37:21;;;;;;;1.63;1.00;;;;;;;;;;5135164;28;19908;-60
2024/03/29 06:39:47;;;;;;;2.03;1.35;;;;;;;;;;5123098;28;20084;-60
2024/03/29 06:42:13;;;;;;;3.47;1.20;;;;;;;;;;5116954;28;20087;-60
2024/03/29 06:44:39;;;;;;;5.78;1.13;;;;;;;;;;5128590;28;20058;-61
2024/03/29 06:47:04;;;;;;;11.47;1.73;;;;;;;;;;5135210;28;20044;-59
2024/03/29 06:49:32;;;;;;;5.45;1.48;;;;;;;;;;5125645;28;20059;-60
2024/03/29 06:52:00;;;;;;;6.05;1.10;;;;;;;;;;5134847;28;20036;-62
2024/03/29 06:54:26;;;;;;;2.15;1.10;;;;;;;;;;5125794;28;20024;-60
2024/03/29 06:56:52;;;;;;;3.50;1.65;;;;;;;;;;5135116;28;20043;-59
2024/03/29 06:59:18;;;;;;;2.70;1.13;;;;;;;;;;5134718;28;20032;-60
2024/03/29 07:01:43;;;;;;;2.10;1.20;;;;;;;;;;5116974;28;20054;-61
2024/03/29 07:04:09;;;;;;;5.82;1.30;;;;;;;;;;5121800;28;20028;-60
2024/03/29 07:06:37;;;;;;;4.13;1.60;;;;;;;;;;5130395;28;20040;-59
2024/03/29 07:09:03;;;;;;;4.13;1.40;;;;;;;;;;5134092;28;20331;-59
2024/03/29 07:11:28;;;;;;;8.02;1.60;;;;;;;;;;5132884;28;20039;-61
2024/03/29 07:13:54;;;;;;;4.82;1.30;;;;;;;;;;5128563;28;20032;-60
2024/03/29 07:16:19;;;;;;;3.17;1.47;;;;;;;;;;5124993;28;20140;-61
2024/03/29 07:18:45;;;;;;;8.15;1.60;;;;;;;;;;5121817;28;20036;-60
2024/03/29 07:21:10;;;;;;;4.30;1.47;;;;;;;;;;5130404;28;20134;-60
2024/03/29 07:23:35;;;;;;;6.57;1.30;;;;;;;;;;5129426;28;20036;-61
2024/03/29 07:26:02;;;;;;;5.10;1.40;;;;;;;;;;5138699;28;20030;-60
2024/03/29 07:28:28;;;;;;;3.63;1.20;;;;;;;;;;5137762;28;20036;-60
2024/03/29 07:30:54;;;;;;;2.92;1.30;;;;;;;;;;5138369;28;20061;-59
2024/03/29 07:33:23;;;;;;;5.55;1.60;;;;;;;;;;5133658;28;20020;-61
2024/03/29 07:35:48;;;;;;;4.82;1.63;;;;;;;;;;5130750;28;20036;-60
2024/03/29 07:38:16;;;;;;;6.23;2.07;;;;;;;;;;5132330;28;20036;-60
2024/03/29 07:40:42;;;;;;;6.70;1.70;;;;;;;;;;5137493;28;20023;-60
2024/03/29 07:43:07;;;;;;;3.77;1.63;;;;;;;;;;5134035;28;20016;-59
2024/03/29 07:45:32;;;;;;;6.57;1.60;;;;;;;;;;5129304;28;20059;-61
2024/03/29 07:47:58;;;;;;;9.23;1.80;;;;;;;;;;5135246;28;20050;-61
2024/03/29 07:50:24;;;;;;;3.75;1.85;;;;;;;;;;5137693;28;20065;-61
2024/03/29 07:52:50;;;;;;;3.95;1.75;;;;;;;;;;5136853;28;20028;-59
2024/03/29 07:55:16;;;;;;;3.53;1.98;;;;;;;;;;5126126;28;20036;-60
2024/03/29 07:57:41;;;;;;;3.03;1.40;;;;;;;;;;5137560;28;20036;-59
2024/03/29 08:00:08;;;;;;;3.17;1.50;;;;;;;;;;5117921;28;20260;-60
2024/03/29 08:02:33;;;;;;;3.53;1.77;;;;;;;;;;5136963;28;20036;-59
2024/03/29 08:04:58;;;;;;;4.43;1.47;;;;;;;;;;5128863;28;20032;-60
2024/03/29 08:07:24;;;;;;;4.87;1.73;;;;;;;;;;5137788;28;20031;-60
2024/03/29 08:09:50;;;;;;;7.33;1.73;;;;;;;;;;5127489;28;20067;-59
2024/03/29 08:12:16;;;;;;;4.97;3.05;;;;;;;;;;5137419;28;20032;-60
2024/03/29 08:14:41;;;;;;;6.47;1.90;;;;;;;;;;5124525;28;20035;-59
2024/03/29 08:17:09;;;;;;;3.80;1.90;;;;;;;;;;5137790;28;20027;-61
2024/03/29 08:19:34;;;;;;;5.33;2.20;;;;;;;;;;5135560;28;20062;-59
2024/03/29 08:22:00;;;;;;;6.13;2.30;;;;;;;;;;5137296;28;20264;-61
2024/03/29 08:24:26;;;;;;;4.32;1.70;;;;;;;;;;5128380;28;20024;-61
2024/03/29 08:26:52;;;;;;;3.85;1.83;;;;;;;;;;5137229;28;20181;-60
2024/03/29 08:29:17;;;;;;;7.33;2.10;;;;;;;;;;5134540;28;20020;-61
2024/03/29 08:31:42;;;;;;;7.93;1.90;;;;;;;;;;5136374;28;20050;-59
2024/03/29 08:34:10;;;;;;;7.97;2.35;;;;;;;;;;5129862;28;20084;-59
2024/03/29 08:36:36;;;;;;;4.27;1.87;;;;;;;;;;5136994;28;20042;-60
2024/03/29 08:39:02;;;;;;;7.90;2.27;;;;;;;;;;5133068;28;20264;-60
2024/03/29 08:41:27;;;;;;;3.72;2.17;;;;;;;;;;5129545;28;20057;-60
2024/03/29 08:43:53;;;;;;;4.45;2.00;;;;;;;;;;5134855;28;20039;-60
2024/03/29 08:46:18;;;;;;;5.00;2.13;;;;;;;;;;5129104;28;20032;-60
2024/03/29 08:48:44;;;;;;;2.00;1.47;;;;;;;;;;5135542;28;20050;-60
2024/03/29 08:51:09;;;;;;;6.75;1.52;;;;;;;;;;5129085;28;20427;-59
2024/03/29 08:53:35;;;;;;;2.93;1.63;;;;;;;;;;5134078;28;20028;-59
2024/03/29 08:56:00;;;;;;;6.33;2.00;;;;;;;;;;5134731;28;20255;-60
2024/03/29 08:58:26;;;;;;;5.80;2.17;;;;;;;;;;5118462;28;20256;-60
2024/03/29 09:00:52;;;;;;;4.67;1.20;;;;;;;;;;5127300;28;20256;-58
2024/03/29 09:03:18;;;;;;;6.63;1.73;;;;;;;;;;5135825;28;20032;-59
2024/03/29 09:05:43;;;;;;;6.10;1.67;;;;;;;;;;5118199;28;20061;-61
2024/03/29 09:08:08;;;;;;;3.07;1.60;;;;;;;;;;5136186;28;20055;-61
2024/03/29 09:10:33;;;;;;;4.13;1.23;;;;;;;;;;5112067;28;20023;-59
2024/03/29 09:13:00;;;;;;;8.73;1.92;;;;;;;;;;5135095;28;20064;-59
2024/03/29 09:15:25;;;;;;;4.47;2.00;;;;;;;;;;5125790;28;20096;-61
2024/03/29 09:17:54;;;;;;;5.25;2.03;;;;;;;;;;5118311;28;20027;-60
2024/03/29 09:20:20;;;;;;;3.43;1.60;;;;;;;;;;5128233;28;20028;-56
2024/03/29 09:22:49;;;;;;;4.87;1.50;;;;;;;;;;5135411;28;20285;-59
2024/03/29 09:25:15;;;;;;;3.50;1.50;;;;;;;;;;5128985;28;20291;-59
2024/03/29 09:27:42;;;;;;;4.53;1.33;;;;;;;;;;5132019;28;20295;-58
2024/03/29 09:30:09;;;;;;;1.70;1.10;;;;;;;;;;5135893;28;20031;-59
2024/03/29 09:32:35;;;;;;;2.77;1.40;;;;;;;;;;5135349;28;20296;-59
2024/03/29 09:35:01;;;;;;;8.40;1.10;;;;;;;;;;5134593;28;20292;-60
2024/03/29 09:37:27;;;;;;;5.50;1.35;;;;;;;;;;5135027;28;20026;-59
2024/03/29 09:39:52;;;;;;;2.70;1.58;;;;;;;;;;5127965;28;20096;-60
2024/03/29 09:42:19;;;;;;;1.90;1.00;;;;;;;;;;5111877;28;20027;-59
2024/03/29 09:44:45;;;;;;;1.90;1.03;;;;;;;;;;5127940;28;20116;-60
2024/03/29 09:47:13;;;;;;;4.38;1.67;;;;;;;;;;5133027;28;20268;-59
2024/03/29 09:49:41;;;;;;;3.47;2.10;;;;;;;;;;5134714;28;20032;-60
2024/03/29 09:52:08;;;;;;;2.13;1.23;;;;;;;;;;5134561;28;20298;-60
2024/03/29 09:54:33;;;;;;;3.80;1.27;;;;;;;;;;5134986;28;20260;-59
2024/03/29 09:56:59;;;;;;;2.13;1.33;;;;;;;;;;5134556;28;20346;-60
2024/03/29 09:59:27;;;;;;;4.90;1.48;;;;;;;;;;5134903;28;20035;-60
2024/03/29 10:01:54;;;;;;;2.77;1.40;;;;;;;;;;5132158;28;20117;-62
2024/03/29 10:04:20;;;;;;;2.77;1.47;;;;;;;;;;5135021;28;20287;-60
2024/03/29 10:06:49;;;;;;;2.73;1.53;;;;;;;;;;5135349;28;20260;-57
2024/03/29 10:09:18;;;;;;;5.07;2.00;;;;;;;;;;5135679;28;20260;-58
2024/03/29 10:11:45;;;;;;;3.90;1.63;;;;;;;;;;5135005;28;20271;-58
2024/03/29 10:14:11;;;;;;;4.63;1.70;;;;;;;;;;5133586;28;20320;-56
2024/03/29 10:16:37;;;;;;;2.03;1.70;;;;;;;;;;5132732;28;20284;-58
2024/03/29 10:19:03;;;;;;;2.60;1.20;;;;;;;;;;5135540;28;20043;-58
2024/03/29 10:21:28;;;;;;;3.08;1.27;;;;;;;;;;5133950;28;20057;-58
2024/03/29 10:23:54;;;;;;;3.03;1.65;;;;;;;;;;5134606;28;20115;-59
2024/03/29 10:26:20;;;;;;;;;;;;;;;;;;5134007;28;20057;-59
2024/03/29 10:28:46;;;;;;;6.03;1.70;;;;;;;;;;5134725;28;19908;-58
2024/03/29 10:31:13;;;;;;;;;;;;;;;;;;5135067;28;20036;-59
2024/03/29 10:33:39;;;;;;;4.15;1.40;;;;;;;;;;5134488;28;19907;-59
2024/03/29 10:36:04;;;;;;;2.93;1.50;;;;;;;;;;5122271;28;20585;-59
2024/03/29 10:38:30;;;;;;;3.05;1.58;;;;;;;;;;5126617;28;20087;-59
2024/03/29 10:40:56;;;;;;;2.75;1.42;;;;;;;;;;5128201;28;20036;-59
2024/03/29 10:43:21;;;;;;;2.88;1.45;;;;;;;;;;5134926;28;20062;-59
2024/03/29 10:45:47;;;;;;;2.45;1.10;;;;;;;;;;5127252;28;20099;-59
2024/03/29 10:48:15;;;;;;;3.90;1.47;;;;;;;;;;5128016;28;20024;-59
2024/03/29 10:50:42;;;;;;;5.93;2.20;;;;;;;;;;5125479;28;20042;-58
2024/03/29 10:53:08;;;;;;;5.23;2.30;;;;;;;;;;5134558;28;20039;-58
2024/03/29 10:55:34;;;;;;;;;;;;;;;;;;5130934;28;20020;-59
2024/03/29 10:58:03;;;;;;;4.33;1.60;;;;;;;;;;5130449;28;19929;-59
2024/03/29 11:00:34;;;;;;;2.93;1.70;;;;;;;;;;5120650;28;20095;-58
2024/03/29 11:03:03;;;;;;;2.77;1.47;;;;;;;;;;5138980;28;20066;-58
2024/03/29 11:05:30;;;;;;;6.30;1.70;;;;;;;;;;5130657;28;20031;-59
2024/03/29 11:07:56;;;;;;;3.30;1.20;;;;;;;;;;5133244;28;20061;-59
2024/03/29 11:10:29;;;;;;;4.38;1.60;;;;;;;;;;5135749;28;20039;-58
2024/03/29 11:13:00;;;;;;;3.93;1.90;;;;;;;;;;5131486;28;20099;-60
2024/03/29 11:15:29;;;;;;;2.27;1.07;;;;;;;;;;5131517;28;20050;-59
2024/03/29 11:17:55;;;;;;;5.03;1.27;;;;;;;;;;5133544;28;20032;-59
2024/03/29 11:20:24;;;;;;;;;;;;;;;;;;5138772;28;20026;-59
2024/03/29 11:22:50;;;;;;;3.27;1.10;;;;;;;;;;5138147;28;19912;-60
2024/03/29 11:25:15;;;;;;;;;;;;;;;;;;5136413;28;20049;-59
2024/03/29 11:27:41;;;;;;;2.97;1.30;;;;;;;;;;5137219;28;19929;-59
2024/03/29 11:30:07;;;;;;;3.57;1.17;;;;;;;;;;5137879;28;20092;-59
2024/03/29 11:32:38;;;;;;;2.35;1.05;;;;;;;;;;5134073;28;20027;-58
2024/03/29 11:35:04;;;;;;;3.10;1.27;;;;;;;;;;5137782;28;20106;-61
2024/03/29 11:37:29;;;;;;;;;;;;;;;;;;5128143;28;20016;-59
2024/03/29 11:39:55;;;;;;;1.63;0.80;;;;;;;;;;5137988;28;19937;-60
2024/03/29 11:42:35;;;;;;;3.72;1.55;;;;;;;;;;5137527;28;20028;-60
2024/03/29 11:45:00;;;;;;;2.00;1.20;;;;;;;;;;5137752;28;20040;-59
2024/03/29 11:47:27;;;;;;;2.03;0.88;;;;;;;;;;5131919;28;20034;-58
2024/03/29 11:49:52;;;;;;;;;;;;;;;;;;5137613;28;20090;-58
2024/03/29 11:52:18;;;;;;;2.27;0.90;;;;;;;;;;5136987;28;19923;-58
2024/03/29 11:54:43;;;;;;;3.10;1.50;;;;;;;;;;5137754;28;20027;-58
2024/03/29 11:57:09;;;;;;;3.47;1.23;;;;;;;;;;5136995;28;20457;-58
2024/03/29 11:59:34;;;;;;;5.00;1.17;;;;;;;;;;5137658;28;20036;-58
2024/03/29 12:01:59;;;;;;;3.70;0.90;;;;;;;;;;5129703;28;20058;-59
2024/03/29 12:04:24;;;;;;;1.83;1.35;;;;;;;;;;5136568;28;20039;-59
2024/03/29 12:06:50;;;;;;;3.63;1.40;;;;;;;;;;5126042;28;20055;-59
2024/03/29 12:09:15;;;;;;;4.35;1.00;;;;;;;;;;5137372;28;20042;-59
2024/03/29 12:11:43;;;;;;;2.70;1.23;;;;;;;;;;5112827;28;20038;-60
2024/03/29 12:14:12;;;;;;;7.30;1.50;;;;;;;;;;5137162;28;20038;-58
2024/03/29 12:16:46;;;;;;;4.93;1.20;;;;;;;;;;5135300;28;20024;-59
2024/03/29 12:19:23;;;;;;;2.83;1.00;;;;;;;;;;5129733;28;20020;-58
2024/03/29 12:21:50;;;;;;;4.33;1.37;;;;;;;;;;5136276;28;20047;-59
2024/03/29 12:24:16;;;;;;;5.77;1.20;;;;;;;;;;5136915;28;20036;-59
2024/03/29 12:26:41;;;;;;;4.57;1.45;;;;;;;;;;5125503;28;20128;-59
2024/03/29 12:29:06;;;;;;;3.03;1.20;;;;;;;;;;5130570;28;20047;-59
2024/03/29 12:31:31;;;;;;;3.37;0.90;;;;;;;;;;5135804;28;20309;-58
2024/03/29 12:33:58;;;;;;;2.67;1.10;;;;;;;;;;5132616;28;20042;-58
2024/03/29 12:36:26;;;;;;;3.63;1.30;;;;;;;;;;5136650;28;20016;-59
2024/03/29 12:38:57;;;;;;;4.43;1.10;;;;;;;;;;5131774;28;20020;-58
2024/03/29 12:41:24;;;;;;;4.10;1.50;;;;;;;;;;5135780;28;20031;-59
2024/03/29 12:43:50;;;;;;;3.67;1.30;;;;;;;;;;5136160;28;20076;-59
2024/03/29 12:46:15;;;;;;;;;;;;;;;;;;5135366;28;20031;-59
2024/03/29 12:48:41;;;;;;;3.17;1.07;;;;;;;;;;5128719;28;19957;-60
2024/03/29 12:51:07;;;;;;;6.47;1.05;;;;;;;;;;5128500;28;20061;-59
2024/03/29 12:53:33;;;;;;;;;;;;;;;;;;5136543;28;20166;-60
2024/03/29 12:55:58;;;;;;;3.23;1.10;;;;;;;;;;5131822;28;19950;-60
2024/03/29 12:58:24;;;;;;;3.60;1.33;;;;;;;;;;5119559;28;20028;-61
2024/03/29 13:00:49;;;;;;;3.25;0.95;;;;;;;;;;5124955;28;20027;-57
2024/03/29 13:03:15;;;;;;;3.50;1.27;;;;;;;;;;5136248;28;20031;-58
2024/03/29 13:05:41;;;;;;;;;;;;;;;;;;5136418;28;20113;-60
2024/03/29 13:08:09;;;;;;;0.80;0.80;;;;;;;;;;5131069;28;19911;-58
2024/03/29 13:10:34;;;;;;;3.23;1.20;;;;;;;;;;5135675;28;20032;-60
2024/03/29 13:13:00;;;;;;;3.00;1.40;;;;;;;;;;5135769;28;20057;-59
2024/03/29 13:15:26;;;;;;;4.72;1.40;;;;;;;;;;5135508;28;20043;-59
2024/03/29 13:17:53;;;;;;;1.47;0.77;;;;;;;;;;5132868;28;20020;-59
2024/03/29 13:20:19;;;;;;;2.57;1.00;;;;;;;;;;5136046;28;20042;-60
2024/03/29 13:22:49;;;;;;;1.42;0.85;;;;;;;;;;5128469;28;20035;-61
2024/03/29 13:25:18;;;;;;;5.67;1.00;;;;;;;;;;5135906;28;20034;-59
2024/03/29 13:27:44;;;;;;;2.80;0.97;;;;;;;;;;5123484;28;20055;-59
2024/03/29 13:30:11;;;;;;;2.50;1.20;;;;;;;;;;5135534;28;20028;-59
2024/03/29 13:32:37;;;;;;;2.30;1.00;;;;;;;;;;5130727;28;20811;-60
2024/03/29 13:35:08;;;;;;;6.40;1.00;;;;;;;;;;5135157;28;20023;-59
2024/03/29 13:37:42;;;;;;;7.40;1.00;;;;;;;;;;5134375;28;20021;-59
2024/03/29 13:40:09;;;;;;;3.57;0.57;;;;;;;;;;5135699;28;20080;-59
2024/03/29 13:42:35;;;;;;;2.60;0.83;;;;;;;;;;5123663;28;20027;-60
2024/03/29 13:45:00;;;;;;;2.10;0.65;;;;;;;;;;5131424;28;20035;-60
2024/03/29 13:47:26;;;;;;;;;;;;;;;;;;5132856;28;20028;-60
2024/03/29 13:49:52;;;;;;;0.90;0.47;;;;;;;;;;5135589;28;19959;-59
2024/03/29 13:52:19;;;;;;;1.70;0.40;;;;;;;;;;5128410;28;20158;-60
2024/03/29 13:54:47;;;;;;;2.20;0.50;;;;;;;;;;5134420;28;20069;-60
2024/03/29 13:57:14;;;;;;;1.73;0.50;;;;;;;;;;5135376;28;20023;-57
2024/03/29 13:59:42;;;;;;;1.77;0.60;;;;;;;;;;5130670;28;20027;-60
2024/03/29 14:02:08;;;;;;;3.07;0.60;;;;;;;;;;5134644;28;20091;-60
2024/03/29 14:04:33;;;;;;;2.15;0.88;;;;;;;;;;5135483;28;20047;-60
2024/03/29 14:06:59;;;;;;;1.98;0.70;;;;;;;;;;5132003;28;20023;-60
2024/03/29 14:09:24;;;;;;;0.80;0.30;;;;;;;;;;5134833;28;20027;-60
2024/03/29 14:11:50;;;;;;;1.00;0.40;;;;;;;;;;5132944;28;20039;-60
2024/03/29 14:14:16;;;;;;;1.80;0.47;;;;;;;;;;5135322;28;20059;-60
2024/03/29 14:16:41;;;;;;;0.73;0.70;;;;;;;;;;5117040;28;20069;-60
2024/03/29 14:19:06;;;;;;;1.07;0.40;;;;;;;;;;5134605;28;20035;-60
2024/03/29 14:21:32;;;;;;;0.87;0.43;;;;;;;;;;5115288;28;20255;-60
2024/03/29 14:23:57;;;;;;;1.67;0.70;;;;;;;;;;5128493;28;20047;-59
2024/03/29 14:26:23;;;;;;;0.60;0.45;;;;;;;;;;5134721;28;20055;-60
2024/03/29 14:28:48;;;;;;;3.67;0.73;;;;;;;;;;5122625;28;20110;-59
2024/03/29 14:31:14;;;;;;;1.23;0.40;;;;;;;;;;5133952;28;20286;-59
2024/03/29 14:33:40;;;;;;;0.82;0.70;;;;;;;;;;5129383;28;20027;-59
2024/03/29 14:36:05;;;;;;;2.72;0.60;;;;;;;;;;5132953;28;20031;-60
2024/03/29 14:38:30;;;;;;;1.38;0.55;;;;;;;;;;5134595;28;20085;-60
2024/03/29 14:40:56;;;;;;;1.05;0.80;;;;;;;;;;5122647;28;20022;-60
2024/03/29 14:43:22;;;;;;;1.85;0.60;;;;;;;;;;5134822;28;20087;-59
2024/03/29 14:45:49;;;;;;;2.90;0.88;;;;;;;;;;5116761;28;20024;-60